Time;durP1;ratioP1;P1;durP2;ratioP2;P2;SDS_P1;SDS_P2;PMS_P1;PMS_P2;Temp;Humidity;BMP_temperature;BMP_pressure;BME280_temperature;BME280_humidity;BME280_pressure;Samples;Min_cycle;Max_cycle;Signal;HPM_P1;HPM_P2
2024/02/21 00:00:11;;;;;;;27.90;6.20;;;;;;;5.82;97.02;101293.20;111169;1211;98981;-67
2024/02/21 00:02:38;;;;;;;25.20;5.40;;;;;;;5.84;96.97;101290.86;111149;1208;139571;-67
2024/02/21 00:05:05;;;;;;;29.10;5.50;;;;;;;5.84;96.86;101288.38;111141;1208;99150;-67
2024/02/21 00:07:30;;;;;;;28.70;5.70;;;;;;;5.83;96.98;101283.45;111285;1208;98931;-67
2024/02/21 00:09:56;;;;;;;25.60;5.20;;;;;;;5.83;96.91;101282.02;111056;1208;139235;-67
2024/02/21 00:12:21;;;;;;;20.80;4.30;;;;;;;5.82;97.01;101278.84;111117;1210;98939;-67
2024/02/21 00:14:47;;;;;;;21.60;5.40;;;;;;;5.80;97.02;101279.22;110950;1210;139747;-67
2024/02/21 00:17:12;;;;;;;22.50;5.20;;;;;;;5.79;96.99;101281.54;111159;1206;100555;-67
2024/02/21 00:19:38;;;;;;;24.10;5.50;;;;;;;5.78;96.93;101276.77;111165;1207;98915;-66
2024/02/21 00:22:04;;;;;;;19.00;4.60;;;;;;;5.73;96.93;101276.83;111061;1211;139071;-67
2024/02/21 00:24:30;;;;;;;26.50;4.90;;;;;;;5.70;96.92;101278.30;111305;1210;107603;-67
2024/02/21 00:26:58;;;;;;;28.50;5.20;;;;;;;5.67;96.89;101274.25;110946;1206;139180;-67
2024/02/21 00:29:24;;;;;;;23.20;4.80;;;;;;;5.69;97.08;101272.64;111154;1208;99120;-67
2024/02/21 00:31:50;;;;;;;23.90;5.60;;;;;;;5.68;96.90;101268.56;111101;1210;99018;-67
2024/02/21 00:34:15;;;;;;;16.80;4.30;;;;;;;5.67;96.99;101262.39;111146;1210;138702;-67
2024/02/21 00:36:41;;;;;;;21.60;4.30;;;;;;;5.70;97.17;101265.52;111130;1210;99004;-67
2024/02/21 00:39:06;;;;;;;20.00;4.10;;;;;;;5.71;97.08;101261.25;111105;1210;139029;-67
2024/02/21 00:41:32;;;;;;;24.50;5.10;;;;;;;5.70;97.18;101260.92;111185;1208;100031;-67
2024/02/21 00:43:57;;;;;;;17.50;5.00;;;;;;;5.69;97.15;101257.56;111079;1210;99007;-67
2024/02/21 00:46:22;;;;;;;23.30;5.20;;;;;;;5.69;97.29;101259.16;111093;1208;138946;-67
2024/02/21 00:48:49;;;;;;;22.40;4.60;;;;;;;5.69;97.19;101258.09;111064;1208;99042;-67
2024/02/21 00:51:15;;;;;;;15.80;4.20;;;;;;;5.70;97.13;101254.19;111001;1209;138826;-67
2024/02/21 00:53:40;;;;;;;28.00;6.20;;;;;;;5.72;97.22;101250.97;111181;1208;98900;-67
2024/02/21 00:56:06;;;;;;;32.20;5.60;;;;;;;5.72;97.27;101243.69;111071;1210;99040;-67
2024/02/21 00:58:31;;;;;;;21.00;4.80;;;;;;;5.72;97.29;101241.56;111049;1208;138722;-67
2024/02/21 01:00:56;;;;;;;19.70;4.80;;;;;;;5.74;97.17;101234.80;111172;1210;98993;-67
2024/02/21 01:03:21;;;;;;;22.40;5.30;;;;;;;5.75;97.30;101231.77;111009;1208;138744;-67
2024/02/21 01:05:47;;;;;;;30.20;6.30;;;;;;;5.75;97.25;101227.70;111148;1208;99041;-67
2024/02/21 01:08:12;;;;;;;25.10;5.70;;;;;;;5.74;97.16;101225.92;111129;1208;99439;-67
2024/02/21 01:10:37;;;;;;;21.60;6.00;;;;;;;5.73;97.06;101219.91;111042;1212;139066;-67
2024/02/21 01:13:02;;;;;;;36.70;8.00;;;;;;;5.73;97.20;101213.54;111115;1209;100571;-67
2024/02/21 01:15:28;;;;;;;32.90;6.20;;;;;;;5.73;97.29;101210.34;111071;1212;139598;-67
2024/02/21 01:17:54;;;;;;;22.90;5.00;;;;;;;5.74;97.37;101200.04;111165;1211;99978;-67
2024/02/21 01:20:21;;;;;;;25.30;5.70;;;;;;;5.75;97.32;101197.55;111127;1211;98940;-67
2024/02/21 01:22:46;;;;;;;25.60;6.00;;;;;;;5.76;97.36;101195.94;111043;1207;138558;-67
2024/02/21 01:25:12;;;;;;;27.60;6.40;;;;;;;5.75;97.25;101194.53;111189;1211;99431;-67
2024/02/21 01:27:37;;;;;;;26.90;5.80;;;;;;;5.73;97.22;101189.95;110986;1210;139045;-68
2024/02/21 01:30:03;;;;;;;28.30;6.10;;;;;;;5.74;97.42;101186.04;111063;1208;99018;-67
2024/02/21 01:32:28;;;;;;;25.20;5.40;;;;;;;5.75;97.41;101185.67;111195;1208;140211;-67
2024/02/21 01:34:54;;;;;;;27.10;6.60;;;;;;;5.74;97.40;101186.56;111091;1208;98989;-67
2024/02/21 01:37:19;;;;;;;27.10;6.50;;;;;;;5.74;97.49;101186.39;111129;1210;99081;-67
2024/02/21 01:39:45;;;;;;;32.20;6.20;;;;;;;5.74;97.37;101185.67;111027;1210;138793;-67
2024/02/21 01:42:10;;;;;;;23.60;5.50;;;;;;;5.73;97.44;101187.81;111140;1208;98948;-67
2024/02/21 01:44:36;;;;;;;25.40;6.10;;;;;;;5.74;97.50;101188.34;111037;1208;139391;-67
2024/02/21 01:47:02;;;;;;;27.30;5.90;;;;;;;5.76;97.57;101186.54;111101;1210;99044;-66
2024/02/21 01:49:27;;;;;;;25.70;6.50;;;;;;;5.75;97.46;101180.34;111199;1208;98930;-66
2024/02/21 01:51:54;;;;;;;20.10;5.60;;;;;;;5.76;97.56;101183.52;111104;1208;138799;-66
2024/02/21 01:54:19;;;;;;;20.80;5.00;;;;;;;5.77;97.68;101182.27;111144;1206;107162;-66
2024/02/21 01:56:46;;;;;;;23.10;6.00;;;;;;;5.76;97.49;101183.34;110907;1206;139360;-66
2024/02/21 01:59:13;;;;;;;21.90;4.90;;;;;;;5.77;97.59;101184.58;111222;1211;98914;-67
2024/02/21 02:01:38;;;;;;;35.70;6.00;;;;;;;5.78;97.59;101185.27;111116;1206;100146;-66
2024/02/21 02:04:05;;;;;;;24.30;5.20;;;;;;;5.80;97.73;101183.27;110962;1206;139940;-66
2024/02/21 02:06:31;;;;;;;24.90;6.00;;;;;;;5.80;97.67;101179.38;111192;1208;99042;-67
2024/02/21 02:08:56;;;;;;;19.20;5.00;;;;;;;5.79;97.73;101172.48;111201;1206;139004;-67
2024/02/21 02:11:22;;;;;;;21.50;5.60;;;;;;;5.79;97.81;101170.35;111072;1212;99039;-67
2024/02/21 02:13:47;;;;;;;19.70;5.40;;;;;;;5.80;97.75;101171.93;111186;1206;98940;-65
2024/02/21 02:16:12;;;;;;;22.60;4.90;;;;;;;5.80;97.60;101165.73;111129;1209;138718;-67
2024/02/21 02:18:37;;;;;;;29.40;6.60;;;;;;;5.80;97.71;101168.91;111121;1207;97847;-67
2024/02/21 02:21:21;;;;;;;26.90;5.20;;;;;;;5.79;97.75;101167.34;111049;1211;139046;-67
2024/02/21 02:23:47;;;;;;;33.30;5.30;;;;;;;5.79;97.82;101166.80;111130;1211;99035;-67
2024/02/21 02:26:12;;;;;;;24.50;5.40;;;;;;;5.80;97.87;101161.98;111186;1210;99078;-67
2024/02/21 02:28:37;;;;;;;22.50;5.00;;;;;;;5.81;97.92;101160.74;111078;1210;140069;-67
2024/02/21 02:31:03;;;;;;;19.50;5.50;;;;;;;5.83;98.00;101155.05;111045;1206;98980;-67
2024/02/21 02:33:28;;;;;;;30.00;6.20;;;;;;;5.83;97.93;101152.55;111120;1208;138775;-67
2024/02/21 02:35:53;;;;;;;30.50;6.00;;;;;;;5.84;97.94;101148.99;111103;1207;99114;-67
2024/02/21 02:38:18;;;;;;;29.80;6.60;;;;;;;5.84;98.04;101146.16;111173;1210;98971;-67
2024/02/21 02:40:44;;;;;;;22.10;5.60;;;;;;;5.84;98.03;101145.45;111053;1210;139214;-67
2024/02/21 02:43:09;;;;;;;18.00;6.00;;;;;;;5.83;98.01;101140.86;111171;1210;98951;-67
2024/02/21 02:45:35;;;;;;;16.80;6.50;;;;;;;5.85;98.16;101142.41;111086;1207;139846;-67
2024/02/21 02:48:00;;;;;;;31.10;4.90;;;;;;;5.87;98.13;101139.89;110997;1206;98930;-67
2024/02/21 02:50:27;;;;;;;27.70;6.60;;;;;;;5.87;98.14;101136.52;111095;1208;100460;-66
2024/02/21 02:52:55;;;;;;;33.10;6.60;;;;;;;5.88;98.12;101132.27;111101;1210;139691;-66
2024/02/21 02:55:20;;;;;;;17.60;5.70;;;;;;;5.88;98.23;101132.45;111143;1211;100042;-67
2024/02/21 02:57:46;;;;;;;29.50;6.30;;;;;;;5.90;98.19;101130.48;110979;1206;139001;-67
2024/02/21 03:00:13;;;;;;;22.50;5.30;;;;;;;5.92;98.37;101125.48;111196;1210;98990;-66
2024/02/21 03:02:40;;;;;;;23.40;5.50;;;;;;;5.93;98.33;101123.86;111047;1206;138925;-66
2024/02/21 03:05:15;;;;;;;21.90;6.10;;;;;;;5.92;98.22;101120.52;111198;1212;99005;-67
2024/02/21 03:07:42;;;;;;;21.30;5.30;;;;;;;5.92;98.52;101121.23;111235;1206;107521;-67
2024/02/21 03:10:08;;;;;;;25.10;5.90;;;;;;;5.95;98.49;101119.77;110983;1210;139276;-67
2024/02/21 03:12:33;;;;;;;22.30;6.00;;;;;;;5.97;98.26;101116.19;111203;1210;99062;-67
2024/02/21 03:14:58;;;;;;;20.50;5.40;;;;;;;5.95;98.47;101108.59;111068;1206;139638;-66
2024/02/21 03:17:26;;;;;;;17.50;5.30;;;;;;;5.95;98.33;101108.59;111124;1209;99988;-66
2024/02/21 03:19:52;;;;;;;26.60;6.80;;;;;;;5.95;98.55;101107.88;111063;1210;98919;-67
2024/02/21 03:22:17;;;;;;;25.70;5.20;;;;;;;5.95;98.44;101106.11;111047;1209;138969;-66
2024/02/21 03:24:43;;;;;;;20.20;6.20;;;;;;;5.97;98.44;101101.81;111184;1210;98995;-67
2024/02/21 03:27:08;;;;;;;24.10;5.90;;;;;;;5.97;98.41;101105.01;110958;1211;139914;-67
2024/02/21 03:29:34;;;;;;;23.30;6.20;;;;;;;5.98;98.54;101101.27;111190;1210;98949;-67
2024/02/21 03:31:59;;;;;;;29.00;7.50;;;;;;;5.98;98.65;101099.85;111043;1212;98986;-67
2024/02/21 03:34:24;;;;;;;20.00;6.40;;;;;;;5.96;98.42;101099.52;111107;1206;139393;-66
2024/02/21 03:36:49;;;;;;;30.20;6.30;;;;;;;5.95;98.52;101096.00;111109;1206;98942;-66
2024/02/21 03:39:15;;;;;;;20.40;6.90;;;;;;;5.94;98.54;101096.18;111029;1206;139462;-67
2024/02/21 03:41:40;;;;;;;21.80;5.10;;;;;;;5.95;98.56;101092.79;111203;1207;99104;-67
2024/02/21 03:44:05;;;;;;;21.20;5.20;;;;;;;5.97;98.74;101091.89;111105;1212;98940;-67
2024/02/21 03:46:31;;;;;;;18.20;5.50;;;;;;;5.97;98.68;101091.17;111108;1211;141140;-67
2024/02/21 03:48:58;;;;;;;25.60;5.80;;;;;;;5.98;98.72;101090.45;111092;1211;112749;-67
2024/02/21 03:51:24;;;;;;;16.80;4.40;;;;;;;5.99;98.60;101086.87;111017;1210;139258;-67
2024/02/21 03:53:49;;;;;;;17.50;4.60;;;;;;;5.99;98.64;101084.39;111185;1206;98920;-66
2024/02/21 03:56:14;;;;;;;29.30;5.70;;;;;;;5.99;98.69;101079.78;111172;1210;99023;-67
2024/02/21 03:58:39;;;;;;;24.40;5.70;;;;;;;5.99;98.60;101078.02;111061;1211;139319;-67
2024/02/21 04:01:05;;;;;;;18.90;4.70;;;;;;;5.97;98.64;101073.95;111139;1206;99108;-67
2024/02/21 04:03:30;;;;;;;20.70;4.80;;;;;;;5.99;98.81;101073.04;111110;1211;139656;-67
2024/02/21 04:05:56;;;;;;;22.40;5.90;;;;;;;6.01;98.88;101067.50;111186;1210;98950;-66
2024/02/21 04:08:22;;;;;;;28.40;5.80;;;;;;;6.01;98.77;101069.98;111129;1211;100357;-66
2024/02/21 04:10:48;;;;;;;25.10;5.50;;;;;;;6.01;98.81;101067.15;110995;1208;139751;-66
2024/02/21 04:13:13;;;;;;;19.70;5.10;;;;;;;6.01;98.68;101066.45;111235;1206;99025;-67
2024/02/21 04:15:38;;;;;;;21.70;5.20;;;;;;;6.01;98.89;101063.25;110982;1206;139771;-67
2024/02/21 04:18:04;;;;;;;24.00;6.10;;;;;;;6.01;98.81;101059.34;111112;1211;99032;-67
2024/02/21 04:20:30;;;;;;;31.90;6.70;;;;;;;6.02;98.90;101057.20;111201;1211;99783;-67
2024/02/21 04:22:55;;;;;;;18.30;5.20;;;;;;;6.02;98.90;101049.74;110977;1209;138957;-67
2024/02/21 04:25:21;;;;;;;18.50;4.90;;;;;;;6.02;98.89;101049.92;111182;1211;98922;-67
2024/02/21 04:27:46;;;;;;;23.60;5.70;;;;;;;6.03;98.89;101045.29;111028;1206;138918;-67
2024/02/21 04:30:12;;;;;;;31.00;5.40;;;;;;;6.04;98.84;101043.67;111126;1210;99040;-67
2024/02/21 04:32:38;;;;;;;22.70;6.00;;;;;;;6.05;98.98;101044.90;111174;1212;139703;-67
2024/02/21 04:35:03;;;;;;;19.70;5.60;;;;;;;6.04;98.86;101043.69;111199;1210;99997;-67
2024/02/21 04:37:29;;;;;;;23.00;5.10;;;;;;;6.03;98.97;101039.62;111086;1211;99029;-67
2024/02/21 04:39:54;;;;;;;21.80;5.90;;;;;;;6.03;98.76;101041.73;111069;1212;138810;-67
2024/02/21 04:42:19;;;;;;;25.80;7.10;;;;;;;6.03;98.90;101042.81;111101;1208;99038;-67
2024/02/21 04:44:45;;;;;;;21.00;5.40;;;;;;;6.01;98.89;101037.16;111030;1211;139096;-67
2024/02/21 04:47:10;;;;;;;22.40;5.70;;;;;;;6.00;98.85;101033.11;111140;1212;99119;-66
2024/02/21 04:49:36;;;;;;;20.30;5.50;;;;;;;5.99;98.92;101030.46;111131;1212;97729;-66
2024/02/21 04:52:02;;;;;;;26.10;5.00;;;;;;;6.00;98.98;101027.96;111072;1207;138868;-67
2024/02/21 04:54:27;;;;;;;19.00;5.10;;;;;;;6.00;98.85;101027.44;111103;1211;99504;-67
2024/02/21 04:56:52;;;;;;;13.80;4.70;;;;;;;6.00;98.89;101023.71;111025;1212;138805;-67
2024/02/21 04:59:18;;;;;;;17.80;5.60;;;;;;;6.01;98.93;101023.16;111250;1206;98914;-66
2024/02/21 05:01:45;;;;;;;27.80;6.00;;;;;;;6.00;98.82;101017.67;111170;1209;99009;-67
2024/02/21 05:04:10;;;;;;;16.90;4.70;;;;;;;5.98;99.11;101011.33;111089;1207;139166;-67
2024/02/21 05:06:41;;;;;;;27.20;6.40;;;;;;;5.98;98.91;101011.15;111146;1212;99062;-67
2024/02/21 05:09:08;;;;;;;19.00;5.40;;;;;;;5.99;98.94;101010.42;110883;1208;138978;-67
2024/02/21 05:11:34;;;;;;;21.80;5.40;;;;;;;5.99;98.96;101004.93;111166;1206;98948;-67
2024/02/21 05:13:59;;;;;;;17.50;5.00;;;;;;;6.01;99.18;101007.19;111081;1206;99484;-67
2024/02/21 05:16:24;;;;;;;37.60;7.50;;;;;;;6.03;99.05;101004.84;111138;1206;138779;-67
2024/02/21 05:18:50;;;;;;;23.90;7.00;;;;;;;6.04;99.05;101006.60;111080;1211;99036;-67
2024/02/21 05:21:15;;;;;;;19.60;5.40;;;;;;;6.04;99.07;101004.30;111066;1212;138888;-67
2024/02/21 05:23:40;;;;;;;24.50;6.20;;;;;;;6.05;99.16;101001.80;111220;1206;98933;-66
2024/02/21 05:26:06;;;;;;;22.00;5.80;;;;;;;6.06;99.11;101003.19;111071;1212;99052;-67
2024/02/21 05:28:31;;;;;;;20.40;5.40;;;;;;;6.06;99.09;100997.70;111095;1206;138942;-67
2024/02/21 05:30:57;;;;;;;28.90;6.20;;;;;;;6.07;99.24;100995.02;111086;1206;98937;-67
2024/02/21 05:33:22;;;;;;;24.50;6.20;;;;;;;6.07;99.04;100991.45;111105;1212;138845;-67
2024/02/21 05:35:48;;;;;;;31.70;7.00;;;;;;;6.07;99.22;100987.38;111129;1209;113018;-67
2024/02/21 05:38:14;;;;;;;22.70;6.00;;;;;;;6.07;99.27;100988.98;111118;1210;98922;-66
2024/02/21 05:40:40;;;;;;;26.00;7.10;;;;;;;6.07;99.34;100984.35;111087;1206;138873;-67
2024/02/21 05:43:05;;;;;;;24.50;6.50;;;;;;;6.10;99.23;100983.61;111068;1206;99036;-67
2024/02/21 05:45:30;;;;;;;25.60;6.80;;;;;;;6.11;99.27;100982.70;111006;1206;139281;-67
2024/02/21 05:47:57;;;;;;;19.70;5.40;;;;;;;6.10;99.29;100980.23;111130;1211;99064;-67
2024/02/21 05:50:23;;;;;;;34.40;7.10;;;;;;;6.09;99.32;100977.75;111092;1206;99050;-67
2024/02/21 05:52:51;;;;;;;23.10;6.00;;;;;;;6.07;99.17;100975.31;110995;1207;138614;-67
2024/02/21 05:55:16;;;;;;;29.60;8.60;;;;;;;6.08;99.19;100973.87;111156;1206;99073;-67
2024/02/21 05:57:42;;;;;;;23.20;7.10;;;;;;;6.08;99.26;100972.64;111097;1211;138779;-67
2024/02/21 06:00:08;;;;;;;21.50;6.80;;;;;;;6.09;99.44;100964.11;111140;1206;99099;-67
2024/02/21 06:02:34;;;;;;;24.20;6.00;;;;;;;6.11;99.31;100966.72;111172;1210;99037;-67
2024/02/21 06:04:59;;;;;;;23.30;6.60;;;;;;;6.11;99.31;100966.89;110876;1211;139185;-66
2024/02/21 06:07:24;;;;;;;31.70;6.60;;;;;;;6.12;99.29;100979.30;111139;1212;99046;-66
2024/02/21 06:09:49;;;;;;;27.30;7.70;;;;;;;6.14;99.28;100977.67;110861;1206;138768;-67
2024/02/21 06:12:14;;;;;;;26.90;6.20;;;;;;;6.12;99.31;100974.86;111205;1212;99527;-67
2024/02/21 06:14:40;;;;;;;17.50;6.50;;;;;;;6.11;99.31;100973.29;111018;1206;139461;-67
2024/02/21 06:17:05;;;;;;;26.40;5.90;;;;;;;6.12;99.37;100969.89;111028;1212;99117;-67
2024/02/21 06:19:30;;;;;;;20.30;6.10;;;;;;;6.12;99.37;100970.95;111107;1206;98955;-67
2024/02/21 06:21:56;;;;;;;19.90;5.40;;;;;;;6.13;99.50;100968.09;110914;1207;139048;-66
2024/02/21 06:24:21;;;;;;;31.50;7.20;;;;;;;6.14;99.45;100961.88;111132;1209;99003;-67
2024/02/21 06:26:47;;;;;;;19.70;6.80;;;;;;;6.14;99.28;100963.46;110957;1206;139714;-66
2024/02/21 06:29:13;;;;;;;28.40;8.00;;;;;;;6.14;99.33;100962.59;111202;1206;99036;-67
2024/02/21 06:31:40;;;;;;;27.80;7.20;;;;;;;6.15;99.45;100964.34;111091;1206;100922;-67
2024/02/21 06:34:05;;;;;;;29.00;7.20;;;;;;;6.16;99.51;100959.35;110924;1210;139868;-67
2024/02/21 06:36:31;;;;;;;28.60;6.90;;;;;;;6.17;99.44;100955.77;111137;1211;99150;-67
2024/02/21 06:38:56;;;;;;;23.90;6.40;;;;;;;6.20;99.56;100956.80;111033;1206;139047;-67
2024/02/21 06:41:21;;;;;;;26.70;5.80;;;;;;;6.20;99.51;100956.61;111064;1206;99202;-67
2024/02/21 06:43:47;;;;;;;23.90;6.50;;;;;;;6.21;99.48;100951.98;111158;1206;98921;-67
2024/02/21 06:46:12;;;;;;;19.10;5.70;;;;;;;6.21;99.51;100950.55;111047;1212;138781;-67
2024/02/21 06:48:38;;;;;;;22.20;5.90;;;;;;;6.21;99.47;100946.48;111183;1212;98926;-67
2024/02/21 06:51:04;;;;;;;25.20;6.20;;;;;;;6.24;99.50;100944.82;111059;1206;139982;-67
2024/02/21 06:53:29;;;;;;;21.80;5.90;;;;;;;6.24;99.49;100943.22;111168;1207;99373;-67
2024/02/21 06:55:54;;;;;;;25.40;6.50;;;;;;;6.26;99.47;100946.39;111172;1211;99049;-67
2024/02/21 06:58:19;;;;;;;25.30;6.80;;;;;;;6.27;99.59;100944.23;111003;1211;139068;-67
2024/02/21 07:00:45;;;;;;;26.70;6.00;;;;;;;6.29;99.56;100945.26;111082;1206;99039;-67
2024/02/21 07:03:10;;;;;;;24.80;6.40;;;;;;;6.31;99.61;100942.36;111132;1206;138993;-67
2024/02/21 07:05:35;;;;;;;20.70;5.50;;;;;;;6.32;99.53;100941.64;111197;1209;99009;-67
2024/02/21 07:08:01;;;;;;;21.40;7.10;;;;;;;6.31;99.55;100939.34;111231;1206;98987;-67
2024/02/21 07:10:28;;;;;;;26.20;6.40;;;;;;;6.34;99.65;100938.05;111049;1211;138662;-67
2024/02/21 07:12:54;;;;;;;28.20;6.30;;;;;;;6.32;99.64;100938.07;111098;1211;99451;-67
2024/02/21 07:15:20;;;;;;;21.00;5.60;;;;;;;6.34;99.60;100940.88;111007;1206;139067;-65
2024/02/21 07:17:45;;;;;;;25.50;5.80;;;;;;;6.34;99.50;100930.75;111217;1206;99448;-66
2024/02/21 07:20:10;;;;;;;18.30;5.90;;;;;;;6.36;99.56;100930.55;111114;1212;98993;-65
2024/02/21 07:22:36;;;;;;;16.40;5.50;;;;;;;6.35;99.59;100929.31;111114;1209;138667;-66
2024/02/21 07:25:01;;;;;;;23.00;5.60;;;;;;;6.35;99.68;100925.95;111163;1206;100160;-65
2024/02/21 07:27:30;;;;;;;19.90;5.60;;;;;;;6.36;99.60;100931.26;111038;1208;138909;-66
2024/02/21 07:29:56;;;;;;;23.20;6.20;;;;;;;6.36;99.70;100924.50;111142;1206;98981;-66
2024/02/21 07:32:21;;;;;;;25.80;6.00;;;;;;;6.38;99.71;100918.07;111136;1206;99715;-66
2024/02/21 07:34:46;;;;;;;18.50;5.50;;;;;;;6.40;99.73;100914.48;111078;1209;139957;-66
2024/02/21 07:37:12;;;;;;;17.10;5.20;;;;;;;6.43;99.76;100910.51;111104;1206;99063;-66
2024/02/21 07:39:37;;;;;;;14.50;5.00;;;;;;;6.44;99.72;100906.21;111080;1206;139880;-66
2024/02/21 07:42:02;;;;;;;17.70;5.80;;;;;;;6.47;99.84;100909.35;111138;1206;99082;-66
2024/02/21 07:44:28;;;;;;;16.80;5.60;;;;;;;6.50;99.81;100913.73;111145;1206;98931;-67
2024/02/21 07:46:53;;;;;;;18.90;5.20;;;;;;;6.50;99.84;100910.70;111059;1206;138812;-66
2024/02/21 07:49:18;;;;;;;22.00;4.70;;;;;;;6.52;99.79;100910.12;111172;1211;99004;-67
2024/02/21 07:51:43;;;;;;;14.40;5.10;;;;;;;6.52;99.82;100904.08;111101;1206;138940;-66
2024/02/21 07:54:09;;;;;;;19.70;5.60;;;;;;;6.54;99.79;100902.45;110991;1206;102033;-66
2024/02/21 07:56:34;;;;;;;27.80;7.00;;;;;;;6.56;99.84;100900.64;111205;1209;98935;-66
2024/02/21 07:58:59;;;;;;;18.10;5.20;;;;;;;6.58;99.87;100895.80;111032;1206;138706;-66
2024/02/21 08:01:25;;;;;;;24.20;5.60;;;;;;;6.59;99.85;100895.41;111151;1206;100485;-66
2024/02/21 08:03:50;;;;;;;21.80;5.70;;;;;;;6.60;99.86;100894.50;111092;1210;139006;-66
2024/02/21 08:06:15;;;;;;;20.30;5.10;;;;;;;6.63;99.90;100896.56;111127;1209;98992;-66
2024/02/21 08:08:40;;;;;;;18.10;5.40;;;;;;;6.67;99.90;100897.16;111103;1209;138962;-66
2024/02/21 08:11:06;;;;;;;17.80;5.10;;;;;;;6.71;99.90;100904.70;111207;1206;98925;-66
2024/02/21 08:13:31;;;;;;;17.30;5.20;;;;;;;6.75;99.97;100907.12;111260;1206;99025;-68
2024/02/21 08:15:57;;;;;;;24.40;7.70;;;;;;;6.79;99.92;100914.11;110993;1212;138681;-67
2024/02/21 08:18:22;;;;;;;22.90;6.70;;;;;;;6.81;99.97;100911.23;111209;1209;99002;-67
2024/02/21 08:20:48;;;;;;;17.90;5.90;;;;;;;6.82;99.85;100915.47;111008;1211;139496;-67
2024/02/21 08:23:16;;;;;;;17.50;5.50;;;;;;;6.80;99.72;100909.13;111157;1210;99035;-67
2024/02/21 08:25:41;;;;;;;18.40;6.10;;;;;;;6.76;99.71;100912.23;111148;1206;112896;-66
2024/02/21 08:28:07;;;;;;;18.20;5.50;;;;;;;6.76;99.83;100907.60;110971;1212;139508;-67
2024/02/21 08:30:32;;;;;;;23.70;5.40;;;;;;;6.78;99.85;100911.48;111144;1206;98922;-67
2024/02/21 08:32:58;;;;;;;22.80;6.10;;;;;;;6.76;99.77;100907.96;110995;1206;139716;-66
2024/02/21 08:35:23;;;;;;;27.50;6.10;;;;;;;6.77;99.84;100908.30;111059;1212;99420;-66
2024/02/21 08:37:49;;;;;;;16.10;4.90;;;;;;;6.81;99.93;100905.02;111162;1206;99026;-66
2024/02/21 08:40:17;;;;;;;20.20;6.10;;;;;;;6.83;99.78;100910.30;111013;1211;139005;-66
2024/02/21 08:42:43;;;;;;;19.00;5.80;;;;;;;6.84;99.82;100900.66;111182;1206;99024;-66
2024/02/21 08:45:09;;;;;;;16.00;5.40;;;;;;;6.87;99.87;100899.55;111046;1206;139452;-66
2024/02/21 08:47:37;;;;;;;17.20;5.20;;;;;;;6.89;99.90;100899.68;111203;1218;99043;-66
2024/02/21 08:50:03;;;;;;;18.10;5.30;;;;;;;6.87;99.67;100897.41;111077;1210;99062;-66
2024/02/21 08:52:28;;;;;;;15.50;6.00;;;;;;;6.81;99.56;100895.78;111007;1212;139185;-66
2024/02/21 08:54:53;;;;;;;19.10;6.20;;;;;;;6.78;99.63;100894.59;111224;1209;99038;-66
2024/02/21 08:57:19;;;;;;;22.10;6.00;;;;;;;6.77;99.60;100887.88;110985;1211;139038;-67
2024/02/21 08:59:45;;;;;;;23.10;7.60;;;;;;;6.77;99.64;100882.72;111217;1206;98918;-66
2024/02/21 09:02:11;;;;;;;18.40;5.80;;;;;;;6.76;99.73;100883.46;111185;1206;114125;-66
2024/02/21 09:04:36;;;;;;;17.30;6.10;;;;;;;6.78;99.80;100885.02;111061;1206;139040;-66
2024/02/21 09:07:02;;;;;;;22.10;8.40;;;;;;;6.80;99.72;100881.23;111145;1206;99046;-66
2024/02/21 09:09:28;;;;;;;22.70;5.90;;;;;;;6.81;99.66;100884.05;111101;1210;138667;-66
2024/02/21 09:11:54;;;;;;;15.80;6.30;;;;;;;6.83;99.65;100874.06;111184;1207;99036;-66
2024/02/21 09:14:19;;;;;;;13.50;5.30;;;;;;;6.87;99.74;100870.77;111278;1210;99005;-66
2024/02/21 09:16:44;;;;;;;25.90;6.40;;;;;;;6.91;99.85;100871.02;111040;1206;139783;-66
2024/02/21 09:19:11;;;;;;;26.40;6.60;;;;;;;6.94;99.82;100870.60;111244;1206;99049;-66
2024/02/21 09:21:37;;;;;;;23.00;6.20;;;;;;;6.96;99.71;100862.72;111157;1211;139123;-66
2024/02/21 09:24:03;;;;;;;22.30;6.30;;;;;;;7.01;99.95;100860.64;111225;1206;107431;-66
2024/02/21 09:26:28;;;;;;;17.90;5.60;;;;;;;7.05;99.79;100861.98;111120;1206;98918;-66
2024/02/21 09:28:53;;;;;;;23.40;8.00;;;;;;;7.06;99.82;100859.45;111083;1206;139390;-66
2024/02/21 09:31:19;;;;;;;21.90;7.20;;;;;;;7.09;99.84;100861.86;111099;1207;100481;-66
2024/02/21 09:33:45;;;;;;;13.20;5.90;;;;;;;7.09;99.76;100867.55;111029;1206;139877;-66
2024/02/21 09:36:10;;;;;;;29.00;6.50;;;;;;;7.09;99.65;100868.80;111197;1206;99152;-66
2024/02/21 09:38:36;;;;;;;21.20;7.10;;;;;;;7.09;99.68;100871.64;111192;1212;99071;-67
2024/02/21 09:41:27;;;;;;;26.30;6.90;;;;;;;7.10;99.79;100866.63;111071;1206;139772;-67
2024/02/21 09:43:56;;;;;;;16.50;5.80;;;;;;;7.12;99.74;100864.63;111049;1206;98947;-66
2024/02/21 09:46:52;;;;;;;25.30;7.50;;;;;;;7.12;99.73;100863.19;111032;1206;139080;-66
2024/02/21 09:49:37;;;;;;;20.10;7.50;;;;;;;7.11;99.62;100856.11;111108;1206;112987;-67
2024/02/21 09:52:05;;;;;;;15.30;5.30;;;;;;;7.12;99.78;100850.95;110961;1206;139111;-66
2024/02/21 09:54:33;;;;;;;18.90;6.10;;;;;;;7.11;99.61;100853.80;111134;1211;98991;-67
2024/02/21 09:57:03;;;;;;;23.10;6.10;;;;;;;7.09;99.65;100852.80;110910;1212;139213;-66
2024/02/21 09:59:30;;;;;;;32.30;8.00;;;;;;;7.08;99.72;100851.58;111188;1205;99248;-66
2024/02/21 10:01:55;;;;;;;24.20;7.60;;;;;;;7.10;99.72;100852.78;111081;1206;99044;-67
2024/02/21 10:04:21;;;;;;;20.90;7.10;;;;;;;7.12;99.79;100851.48;110957;1206;139005;-67
2024/02/21 10:06:47;;;;;;;16.00;6.80;;;;;;;7.14;99.72;100853.20;111062;1211;99038;-67
2024/02/21 10:09:28;;;;;;;24.30;7.40;;;;;;;7.14;99.73;100850.17;110979;1212;139184;-67
2024/02/21 10:11:55;;;;;;;13.80;6.60;;;;;;;7.13;99.70;100849.85;111024;1206;113042;-67
2024/02/21 10:14:20;;;;;;;19.80;7.40;;;;;;;7.15;99.72;100852.81;111184;1210;98952;-67
2024/02/21 10:16:48;;;;;;;21.40;5.90;;;;;;;7.16;99.75;100850.48;110948;1207;138742;-67
2024/02/21 10:19:20;;;;;;;24.70;6.50;;;;;;;7.18;99.71;100849.73;111126;1206;98940;-67
2024/02/21 10:22:08;;;;;;;21.00;6.60;;;;;;;7.23;99.79;100850.30;110901;1206;139714;-66
2024/02/21 10:24:35;;;;;;;17.50;7.10;;;;;;;7.27;99.60;100849.48;111129;1210;99243;-67
2024/02/21 10:27:05;;;;;;;25.00;6.80;;;;;;;7.28;99.69;100851.40;110998;1206;139858;-67
2024/02/21 10:29:31;;;;;;;16.50;6.30;;;;;;;7.31;99.66;100850.98;111118;1206;99085;-67
2024/02/21 10:32:12;;;;;;;15.70;6.10;;;;;;;7.33;99.72;100850.39;111160;1209;98956;-67
2024/02/21 10:34:39;;;;;;;21.80;7.00;;;;;;;7.37;99.73;100842.29;111012;1206;139674;-67
2024/02/21 10:37:06;;;;;;;22.70;6.40;;;;;;;7.41;99.78;100843.77;111120;1206;98971;-67
2024/02/21 10:39:39;;;;;;;21.20;7.40;;;;;;;7.42;99.64;100842.31;110977;1206;139836;-67
2024/02/21 10:42:05;;;;;;;19.30;7.10;;;;;;;7.46;99.68;100834.56;111049;1205;100627;-67
2024/02/21 10:44:32;;;;;;;20.40;6.10;;;;;;;7.53;99.83;100828.87;111132;1209;99035;-66
2024/02/21 10:46:58;;;;;;;19.60;6.80;;;;;;;7.59;99.83;100817.84;110972;1206;140289;-66
2024/02/21 10:49:29;;;;;;;21.00;6.50;;;;;;;7.69;99.92;100815.42;111201;1206;99056;-67
2024/02/21 10:52:06;;;;;;;21.20;6.00;;;;;;;7.78;99.92;100808.40;111015;1210;139395;-67
2024/02/21 10:54:50;;;;;;;24.50;6.50;;;;;;;7.83;99.73;100801.30;111168;1206;99370;-67
2024/02/21 10:57:16;;;;;;;17.30;6.10;;;;;;;7.88;99.82;100795.25;110995;1210;140009;-66
2024/02/21 10:59:44;;;;;;;13.10;5.50;;;;;;;7.92;99.81;100792.65;111163;1206;99022;-66
2024/02/21 11:02:10;;;;;;;19.60;6.40;;;;;;;7.96;99.78;100787.73;111075;1205;98921;-67
2024/02/21 11:04:37;;;;;;;27.60;7.30;;;;;;;7.96;99.58;100780.60;111004;1206;139448;-67
2024/02/21 11:07:05;;;;;;;18.40;5.80;;;;;;;7.99;99.65;100774.28;111182;1206;98921;-66
2024/02/21 11:09:35;;;;;;;21.00;6.70;;;;;;;8.05;99.78;100776.23;111033;1206;138822;-67